Lyman, Nebraska
Current Conditions -  °F | °C
As of 7:53 PM on Tuesday 21 Oct 2014 (Local Time) from KTOR Reporting Station
Overcast Overcast  
Wind Chill: 61°   Ceiling: 10000
Heat Index: 61°   Visibility: 10mi
Dew Point: 46°   Wind: 3mph
Humidity: 58%   Direction: 60°ENE
Pressure: 29.87"   Gusts: NA
Location:  41.92°N, 104.04°W
Report Text: KTOR 220153Z AUTO 06003KT 10SM FEW060 SCT075 OVC100 16/08 A2987 RMK AO2 SLP100 T01610078
Loading
Personal Weather Stations






























Interactive Weather Map
Tropical Storm Tracking
New forecast layout! Learn more

10-Day Weather Forecast

Advertisements
Track Severe Weather on mobile